Погода Псычохна неделю

Кабардино-Балкарская республик, Россия

15 - 21 июля
  • 15июля
    Сегодня
    +20°
    +32°
    Ясно и безоблачно
    ВремяПогодаТемператураВлажностьДавлениеВетер, м/сВероятность осадков
    00:00Ясно и безоблачно+19°C44 %719 мм2.2 м/с2 %
    03:00Ясно и безоблачно+17°C63 %718 мм2.2 м/с2 %
    06:00Ясно и безоблачно+19°C73 %718 мм2.0 м/с2 %
    09:00Ясно и безоблачно+27°C31 %720 мм1.7 м/с2 %
    12:00Ясно и безоблачно+31°C24 %720 мм3.1 м/с2 %
    15:00Ясно и безоблачно+31°C23 %719 мм3.2 м/с2 %
    18:00Ясно и безоблачно+30°C29 %719 мм3.0 м/с2 %
    21:00Ясно и безоблачно+24°C42 %719 мм2.7 м/с2 %
  • 16июля
    Вторник
    +21°
    +34°
    Облачно с прояснениями
    ВремяПогодаТемператураВлажностьДавлениеВетер, м/сВероятность осадков
    00:00Ясно и безоблачно+22°C65 %718 мм2.6 м/с2 %
    03:00Ясно и безоблачно+21°C54 %718 мм2.4 м/с2 %
    06:00Ясно и безоблачно+22°C59 %719 мм2.1 м/с2 %
    09:00Ясно и безоблачно+29°C31 %720 мм1.6 м/с2 %
    12:00Облачно с прояснениями+32°C26 %720 мм3.1 м/с2 %
    15:00Облачно с прояснениями+33°C25 %719 мм3.4 м/с7 %
    18:00Небольшая облачность+31°C33 %719 мм3.1 м/с6 %
    21:00Ясно и безоблачно+26°C42 %719 мм2.6 м/с2 %
  • 17июля
    Среда
    +21°
    +35°
    Облачно с прояснениями
    ВремяПогодаТемператураВлажностьДавлениеВетер, м/сВероятность осадков
    00:00Ясно и безоблачно+25°C44 %719 мм3.1 м/с2 %
    03:00Ясно и безоблачно+23°C55 %719 мм2.6 м/с2 %
    06:00Ясно и безоблачно+23°C54 %720 мм2.0 м/с2 %
    09:00Ясно и безоблачно+31°C35 %721 мм1.6 м/с2 %
    12:00Практически безоблачно+33°C26 %721 мм3.3 м/с2 %
    15:00Облачно с прояснениями+34°C23 %720 мм4.1 м/с4 %
    18:00Облачно с прояснениями+32°C28 %719 мм2.4 м/с5 %
    21:00Пасмурно, сплошная облачность+28°C38 %720 мм1.9 м/с3 %
  • 18июля
    Четверг
    +22°
    +35°
    Практически безоблачно
    ВремяПогодаТемператураВлажностьДавлениеВетер, м/сВероятность осадков
    00:00Ясно и безоблачно+24°C40 %720 мм2.3 м/с3 %
    03:00Ясно и безоблачно+23°C56 %720 мм2.2 м/с4 %
    06:00Ясно и безоблачно+23°C64 %720 мм1.9 м/с3 %
    09:00Ясно и безоблачно+30°C34 %721 мм1.8 м/с5 %
    12:00Ясно и безоблачно+32°C24 %721 мм3.1 м/с3 %
    15:00Практически безоблачно+33°C21 %720 мм3.5 м/с4 %
    18:00Практически безоблачно+33°C26 %719 мм3.1 м/с2 %
    21:00Ясно и безоблачно+26°C34 %719 мм2.4 м/с2 %
  • 19июля
    Пятница
    +21°
    +35°
    Ясно и безоблачно
    ВремяПогодаТемператураВлажностьДавлениеВетер, м/сВероятность осадков
    00:00Ясно и безоблачно+25°C37 %719 мм2.7 м/с2 %
    03:00Ясно и безоблачно+23°C47 %718 мм2.3 м/с2 %
    06:00Ясно и безоблачно+23°C45 %718 мм2.1 м/с2 %
    09:00Ясно и безоблачно+31°C23 %719 мм1.2 м/с2 %
    12:00Ясно и безоблачно+34°C19 %718 мм2.8 м/с2 %
    15:00Ясно и безоблачно+34°C17 %717 мм3.0 м/с2 %
    18:00Ясно и безоблачно+33°C24 %717 мм2.4 м/с2 %
    21:00Ясно и безоблачно+26°C35 %716 мм2.5 м/с2 %
Мы используем cookies
Соглашаюсь